createdAt,value
2024-02-10T00:01:50.084Z,29.70
2024-02-10T00:03:53.076Z,25.50
2024-02-10T00:05:56.186Z,21.33
2024-02-10T00:07:59.007Z,21.17
2024-02-10T00:10:01.769Z,18.00
2024-02-10T00:12:04.960Z,21.67
2024-02-10T00:14:07.751Z,29.90
2024-02-10T00:16:13.483Z,13.93
2024-02-10T00:18:15.379Z,24.53
2024-02-10T00:20:21.569Z,15.97
2024-02-10T00:22:25.413Z,19.50
2024-02-10T00:24:29.121Z,21.05
2024-02-10T00:26:31.938Z,21.17
2024-02-10T00:28:36.419Z,21.00
2024-02-10T00:30:40.503Z,28.17
2024-02-10T00:32:44.841Z,19.80
2024-02-10T00:34:46.764Z,15.13
2024-02-10T00:36:49.553Z,18.93
2024-02-10T00:38:51.342Z,18.30
2024-02-10T00:40:54.189Z,19.90
2024-02-10T00:42:57.051Z,27.67
2024-02-10T00:45:00.756Z,27.07
2024-02-10T00:47:10.481Z,16.80
2024-02-10T00:49:15.003Z,19.57
2024-02-10T00:51:17.851Z,17.80
2024-02-10T00:53:20.790Z,18.53
2024-02-10T00:55:31.407Z,20.87
2024-02-10T00:57:34.385Z,20.17
2024-02-10T00:59:37.133Z,16.30
2024-02-10T01:01:40.970Z,22.83
2024-02-10T01:03:46.024Z,18.50
2024-02-10T01:05:52.034Z,22.27
2024-02-10T01:07:53.946Z,24.27
2024-02-10T01:09:57.331Z,49.27
2024-02-10T01:12:00.064Z,34.83
2024-02-10T01:14:02.793Z,25.17
2024-02-10T01:16:06.191Z,17.13
2024-02-10T01:18:10.790Z,22.00
2024-02-10T01:20:13.956Z,18.10
2024-02-10T01:22:19.033Z,18.93
2024-02-10T01:24:21.751Z,19.83
2024-02-10T01:26:24.474Z,18.77
2024-02-10T01:28:27.253Z,27.80
2024-02-10T01:30:29.033Z,24.27
2024-02-10T01:32:31.951Z,25.37
2024-02-10T01:34:35.472Z,17.63
2024-02-10T01:36:38.252Z,27.23
2024-02-10T01:38:44.313Z,25.33
2024-02-10T01:40:47.255Z,23.77
2024-02-10T01:42:50.882Z,22.60
2024-02-10T01:44:53.700Z,34.10
2024-02-10T01:47:00.677Z,29.57
2024-02-10T01:49:03.866Z,24.13
2024-02-10T01:51:06.853Z,17.50
2024-02-10T01:53:09.639Z,27.13
2024-02-10T01:55:12.994Z,30.63
2024-02-10T01:57:15.837Z,28.87
2024-02-10T01:59:18.607Z,23.53
2024-02-10T02:01:23.693Z,32.63
2024-02-10T02:03:27.847Z,23.87
2024-02-10T02:05:32.354Z,29.57
2024-02-10T02:07:35.114Z,24.05
2024-02-10T02:09:36.943Z,28.53
2024-02-10T02:11:52.136Z,25.83
2024-02-10T02:13:55.674Z,25.20
2024-02-10T02:15:59.874Z,24.03
2024-02-10T02:18:02.815Z,35.67
2024-02-10T02:20:08.300Z,18.30
2024-02-10T02:22:11.178Z,24.30
2024-02-10T02:24:15.313Z,26.87
2024-02-10T02:26:18.023Z,30.17
2024-02-10T02:28:22.799Z,21.57
2024-02-10T02:30:25.537Z,21.00
2024-02-10T02:32:30.025Z,26.80
2024-02-10T02:34:34.595Z,28.93
2024-02-10T02:36:37.597Z,20.73
2024-02-10T02:38:40.946Z,23.47
2024-02-10T02:40:44.070Z,32.87
2024-02-10T02:42:47.339Z,27.63
2024-02-10T02:44:50.122Z,26.37
2024-02-10T02:46:52.967Z,25.10
2024-02-10T02:48:56.186Z,33.40
2024-02-10T02:51:00.134Z,28.30
2024-02-10T02:53:03.330Z,30.80
2024-02-10T02:55:09.556Z,29.43
2024-02-10T02:57:13.628Z,27.83
2024-02-10T02:59:15.796Z,32.30
2024-02-10T03:01:18.646Z,33.13
2024-02-10T03:03:21.456Z,34.00
2024-02-10T03:05:24.288Z,27.30
2024-02-10T03:07:31.695Z,33.73
2024-02-10T03:09:33.579Z,31.30
2024-02-10T03:11:37.451Z,34.80
2024-02-10T03:13:44.789Z,30.00
2024-02-10T03:15:47.655Z,31.80
2024-02-10T03:17:50.755Z,20.80
2024-02-10T03:19:53.205Z,29.97
2024-02-10T03:21:55.984Z,29.07
2024-02-10T03:24:04.376Z,31.93
2024-02-10T03:26:07.215Z,34.80
2024-02-10T03:28:10.012Z,30.00
2024-02-10T03:30:16.655Z,37.00
2024-02-10T03:32:19.519Z,27.77
2024-02-10T03:34:21.486Z,33.67
2024-02-10T03:36:25.647Z,33.47
2024-02-10T03:38:28.896Z,25.23
2024-02-10T03:40:31.656Z,33.10
2024-02-10T03:42:34.667Z,27.07
2024-02-10T03:44:37.406Z,31.20
2024-02-10T03:46:41.543Z,25.90
2024-02-10T03:48:43.957Z,26.07
2024-02-10T03:50:46.827Z,29.10
2024-02-10T03:52:49.888Z,19.63
2024-02-10T03:54:53.192Z,34.00
2024-02-10T03:56:56.088Z,29.40
2024-02-10T03:58:58.947Z,30.30
2024-02-10T04:01:02.994Z,22.23
2024-02-10T04:03:09.339Z,24.00
2024-02-10T04:05:12.110Z,27.97
2024-02-10T04:07:17.182Z,23.20
2024-02-10T04:09:21.962Z,27.30
2024-02-10T04:11:25.821Z,19.40
2024-02-10T04:13:29.570Z,29.73
2024-02-10T04:15:33.060Z,25.40
2024-02-10T04:17:35.819Z,22.30
2024-02-10T04:19:40.343Z,19.67
2024-02-10T04:21:43.129Z,28.70
2024-02-10T04:23:45.894Z,22.60
2024-02-10T04:25:48.708Z,18.17
2024-02-10T04:27:51.508Z,14.57
2024-02-10T04:29:55.691Z,16.77
2024-02-10T04:32:00.358Z,16.93
2024-02-10T04:34:02.466Z,22.30
2024-02-10T04:36:07.163Z,27.97
2024-02-10T04:38:10.749Z,18.50
2024-02-10T04:40:13.712Z,15.77
2024-02-10T04:42:16.591Z,19.77
2024-02-10T04:44:19.710Z,19.53
2024-02-10T04:46:23.740Z,18.00
2024-02-10T04:48:27.105Z,16.80
2024-02-10T04:50:30.707Z,14.27
2024-02-10T04:52:35.540Z,18.83
2024-02-10T04:54:38.631Z,32.47
2024-02-10T04:56:41.419Z,17.50
2024-02-10T04:58:44.177Z,13.73
2024-02-10T05:00:46.966Z,16.13
2024-02-10T05:02:52.191Z,13.83
2024-02-10T05:04:54.034Z,22.90
2024-02-10T05:06:56.828Z,14.00
2024-02-10T05:09:00.884Z,15.93
2024-02-10T05:11:03.734Z,10.67
2024-02-10T05:13:06.511Z,9.83
2024-02-10T05:15:10.949Z,18.27
2024-02-10T05:17:14.734Z,11.97
2024-02-10T05:19:17.980Z,14.00
2024-02-10T05:21:21.945Z,9.00
2024-02-10T05:23:24.728Z,10.40
2024-02-10T05:25:36.930Z,10.33
2024-02-10T05:27:39.869Z,12.93
2024-02-10T05:29:43.164Z,11.40
2024-02-10T05:31:49.111Z,8.93
2024-02-10T05:33:54.222Z,10.70
2024-02-10T05:35:57.031Z,23.00
2024-02-10T05:37:59.673Z,8.87
2024-02-10T05:40:02.684Z,10.60
2024-02-10T05:42:07.521Z,11.67
2024-02-10T05:44:13.794Z,12.80
2024-02-10T05:46:16.679Z,14.00
2024-02-10T05:48:22.025Z,11.07
2024-02-10T05:50:25.897Z,15.07
2024-02-10T05:52:28.672Z,13.93
2024-02-10T05:54:34.645Z,19.43
2024-02-10T05:56:37.646Z,13.93
2024-02-10T05:58:41.765Z,28.27
2024-02-10T06:00:45.470Z,17.80
2024-02-10T06:02:49.001Z,14.60
2024-02-10T06:04:52.868Z,14.77
2024-02-10T06:06:55.680Z,14.43
2024-02-10T06:08:58.468Z,17.07
2024-02-10T06:11:01.350Z,15.13
2024-02-10T06:13:04.299Z,20.30
2024-02-10T06:15:11.033Z,16.03
2024-02-10T06:17:14.553Z,33.80
2024-02-10T06:19:18.174Z,54.43
2024-02-10T06:21:22.862Z,65.50
2024-02-10T06:23:26.990Z,62.40
2024-02-10T06:25:30.107Z,77.43
2024-02-10T06:27:35.504Z,63.70
2024-02-10T06:29:38.214Z,52.27
2024-02-10T06:31:43.992Z,65.60
2024-02-10T06:33:50.956Z,49.33
2024-02-10T06:35:54.910Z,38.90
2024-02-10T06:37:58.625Z,18.50
2024-02-10T06:40:01.494Z,13.60
2024-02-10T06:42:04.577Z,19.33
2024-02-10T06:44:10.490Z,17.23
2024-02-10T06:46:15.307Z,14.80
2024-02-10T06:48:20.406Z,20.57
2024-02-10T06:50:27.761Z,21.70
2024-02-10T06:52:30.755Z,20.70
2024-02-10T06:54:33.518Z,21.07
2024-02-10T06:56:36.239Z,23.60
2024-02-10T06:58:40.165Z,93.90
2024-02-10T07:00:43.048Z,84.53
2024-02-10T07:02:46.160Z,44.50
2024-02-10T07:04:54.139Z,41.73
2024-02-10T07:06:58.879Z,28.53
2024-02-10T07:09:02.513Z,14.77
2024-02-10T07:11:05.552Z,47.13
2024-02-10T07:13:09.093Z,74.63
2024-02-10T07:15:13.972Z,62.40
2024-02-10T07:17:17.737Z,37.93
2024-02-10T07:19:20.523Z,25.07
2024-02-10T07:21:24.598Z,20.80
2024-02-10T07:23:28.045Z,21.07
2024-02-10T07:25:31.530Z,73.73
2024-02-10T07:27:34.288Z,54.50
2024-02-10T07:29:37.029Z,50.90
2024-02-10T07:31:41.092Z,46.70
2024-02-10T07:33:48.834Z,31.80
2024-02-10T07:35:51.796Z,17.23
2024-02-10T07:37:56.048Z,17.43
2024-02-10T07:39:58.091Z,17.47
2024-02-10T07:42:02.431Z,17.10
2024-02-10T07:44:04.863Z,14.40
2024-02-10T07:46:07.591Z,14.77
2024-02-10T07:48:09.945Z,15.87
2024-02-10T07:50:12.917Z,15.63
2024-02-10T07:52:15.761Z,15.70
2024-02-10T07:54:21.497Z,11.60
2024-02-10T07:56:23.321Z,14.03
2024-02-10T07:58:27.774Z,10.60
2024-02-10T08:00:31.758Z,9.57
2024-02-10T08:02:34.490Z,9.87
2024-02-10T08:04:37.323Z,11.47
2024-02-10T08:06:41.033Z,10.50
2024-02-10T08:08:43.845Z,8.33
2024-02-10T08:10:48.070Z,11.90
2024-02-10T08:12:51.740Z,11.60
2024-02-10T08:14:55.342Z,9.23
2024-02-10T08:16:58.087Z,12.93
2024-02-10T08:19:01.051Z,7.93
2024-02-10T08:21:07.946Z,13.17
2024-02-10T08:23:13.812Z,17.27
2024-02-10T08:25:19.762Z,8.03
2024-02-10T08:27:26.795Z,9.40
2024-02-10T08:29:34.869Z,7.30
2024-02-10T08:31:37.738Z,8.60
2024-02-10T08:33:39.616Z,6.43
2024-02-10T08:35:42.864Z,6.10
2024-02-10T08:37:46.010Z,4.90
2024-02-10T08:39:48.786Z,6.70
2024-02-10T08:41:51.716Z,6.27
2024-02-10T08:43:54.889Z,6.20
2024-02-10T08:45:58.503Z,5.80
2024-02-10T08:48:02.238Z,6.20
2024-02-10T08:50:08.943Z,7.13
2024-02-10T08:52:17.710Z,6.18
2024-02-10T08:54:21.025Z,8.73
2024-02-10T08:56:24.643Z,6.53
2024-02-10T08:58:27.940Z,11.87
2024-02-10T09:00:32.032Z,7.00
2024-02-10T09:02:34.767Z,9.93
2024-02-10T09:04:37.960Z,6.20
2024-02-10T09:06:40.812Z,7.60
2024-02-10T09:08:44.381Z,6.80
2024-02-10T09:10:47.154Z,8.50
2024-02-10T09:12:49.054Z,8.30
2024-02-10T09:14:52.391Z,5.80
2024-02-10T09:16:56.620Z,7.87
2024-02-10T09:18:59.501Z,7.10
2024-02-10T09:21:03.233Z,6.80
2024-02-10T09:23:06.186Z,5.40
2024-02-10T09:25:09.313Z,5.30
2024-02-10T09:27:12.443Z,5.17
2024-02-10T09:29:15.224Z,7.40
2024-02-10T09:31:20.263Z,6.10
2024-02-10T09:33:25.519Z,9.70
2024-02-10T09:35:33.971Z,8.90
2024-02-10T09:37:37.197Z,5.03
2024-02-10T09:39:39.962Z,4.40
2024-02-10T09:41:42.995Z,6.10
2024-02-10T09:43:49.301Z,3.77
2024-02-10T09:45:51.228Z,5.10
2024-02-10T09:47:54.028Z,5.73
2024-02-10T09:50:05.157Z,5.23
2024-02-10T09:52:07.946Z,2.77
2024-02-10T09:54:10.854Z,4.72
2024-02-10T09:56:14.685Z,2.97
2024-02-10T09:58:18.099Z,3.37
2024-02-10T10:00:21.146Z,3.60
2024-02-10T10:02:24.474Z,2.70
2024-02-10T10:04:27.407Z,2.93
2024-02-10T10:06:31.606Z,2.40
2024-02-10T10:08:35.625Z,4.70
2024-02-10T10:10:38.426Z,3.10
2024-02-10T10:12:41.194Z,2.60
2024-02-10T10:14:43.920Z,2.20
2024-02-10T10:16:57.330Z,2.73
2024-02-10T10:19:01.705Z,2.50
2024-02-10T10:21:05.926Z,2.00
2024-02-10T10:23:10.325Z,3.80
2024-02-10T10:25:13.109Z,3.87
2024-02-10T10:27:18.066Z,5.23
2024-02-10T10:29:21.264Z,3.20
2024-02-10T10:31:25.158Z,2.13
2024-02-10T10:33:27.847Z,3.13
2024-02-10T10:35:30.633Z,2.37
2024-02-10T10:37:33.876Z,6.50
2024-02-10T10:39:38.461Z,2.33
2024-02-10T10:41:44.051Z,2.50
2024-02-10T10:43:46.909Z,6.03
2024-02-10T10:45:48.754Z,3.27
2024-02-10T10:47:51.559Z,1.97
2024-02-10T10:49:55.220Z,3.20
2024-02-10T10:52:02.875Z,1.67
2024-02-10T10:54:06.027Z,2.90
2024-02-10T10:56:10.702Z,2.17
2024-02-10T10:58:14.318Z,2.60
2024-02-10T11:00:17.519Z,1.97
2024-02-10T11:02:26.575Z,1.80
2024-02-10T11:04:35.829Z,2.50
2024-02-10T11:06:38.613Z,1.63
2024-02-10T11:08:46.577Z,2.13
2024-02-10T11:10:50.075Z,3.63
2024-02-10T11:12:58.714Z,2.10
2024-02-10T11:15:01.474Z,2.60
2024-02-10T11:17:11.736Z,1.70
2024-02-10T11:19:17.090Z,1.90
2024-02-10T11:21:22.768Z,5.13
2024-02-10T11:23:24.689Z,3.33
2024-02-10T11:25:27.538Z,2.60
2024-02-10T11:27:31.183Z,2.00
2024-02-10T11:29:35.246Z,3.63
2024-02-10T11:31:40.595Z,2.10
2024-02-10T11:33:43.516Z,2.30
2024-02-10T11:35:47.621Z,4.13
2024-02-10T11:37:50.474Z,5.13
2024-02-10T11:39:53.715Z,3.43
2024-02-10T11:41:57.262Z,2.87
2024-02-10T11:44:00.386Z,1.80
2024-02-10T11:46:04.705Z,4.60
2024-02-10T11:48:09.640Z,2.13
2024-02-10T11:50:12.529Z,2.27
2024-02-10T11:52:14.413Z,2.57
2024-02-10T11:54:17.317Z,3.17
2024-02-10T11:56:20.101Z,1.93
2024-02-10T11:58:25.500Z,1.93
2024-02-10T12:00:29.973Z,1.73
2024-02-10T12:02:34.477Z,4.23
2024-02-10T12:04:37.478Z,2.10
2024-02-10T12:06:40.539Z,2.20
2024-02-10T12:08:44.250Z,2.33
2024-02-10T12:10:47.139Z,5.20
2024-02-10T12:12:52.730Z,12.50
2024-02-10T12:14:55.631Z,2.30
2024-02-10T12:17:01.699Z,1.38
2024-02-10T12:19:07.998Z,1.63
2024-02-10T12:21:11.445Z,1.40
2024-02-10T12:23:14.416Z,7.40
2024-02-10T12:25:17.169Z,1.77
2024-02-10T12:27:26.670Z,1.30
2024-02-10T12:29:31.299Z,5.27
2024-02-10T12:31:35.063Z,1.80
2024-02-10T12:33:37.887Z,1.40
2024-02-10T12:35:43.343Z,3.60
2024-02-10T12:37:48.117Z,1.50
2024-02-10T12:39:50.883Z,1.70
2024-02-10T12:41:54.612Z,2.33
2024-02-10T12:43:59.665Z,5.70
2024-02-10T12:46:04.202Z,2.10
2024-02-10T12:48:09.899Z,3.60
2024-02-10T12:50:12.956Z,2.60
2024-02-10T12:52:17.634Z,10.17
2024-02-10T12:54:21.766Z,1.90
2024-02-10T12:56:26.072Z,7.50
2024-02-10T12:58:29.698Z,8.90
2024-02-10T13:00:32.694Z,3.80
2024-02-10T13:02:36.147Z,2.67
2024-02-10T13:04:39.009Z,2.70
2024-02-10T13:06:42.410Z,2.13
2024-02-10T13:08:45.586Z,2.47
2024-02-10T13:10:48.609Z,3.33
2024-02-10T13:12:51.402Z,4.10
2024-02-10T13:14:54.169Z,4.07
2024-02-10T13:16:59.416Z,3.20
2024-02-10T13:19:03.022Z,1.93
2024-02-10T13:21:06.128Z,1.73
2024-02-10T13:23:08.943Z,3.43
2024-02-10T13:25:13.566Z,4.53
2024-02-10T13:27:16.385Z,2.80
2024-02-10T13:29:21.023Z,2.30
2024-02-10T13:31:23.931Z,1.63
2024-02-10T13:33:26.836Z,1.93
2024-02-10T13:35:30.808Z,2.77
2024-02-10T13:37:51.240Z,2.47
2024-02-10T13:40:11.749Z,1.93
2024-02-10T13:42:33.358Z,2.70
2024-02-10T13:44:53.870Z,1.83
2024-02-10T13:47:14.384Z,1.53
2024-02-10T13:49:34.863Z,2.37
2024-02-10T13:51:55.256Z,1.63
2024-02-10T13:54:15.695Z,2.60
2024-02-10T13:56:36.216Z,2.67
2024-02-10T13:58:39.794Z,1.40
2024-02-10T14:00:45.702Z,1.97
2024-02-10T14:03:01.861Z,3.20
2024-02-10T14:05:13.817Z,1.40
2024-02-10T14:07:37.828Z,1.90
2024-02-10T14:09:41.096Z,1.57
2024-02-10T14:11:44.001Z,1.80
2024-02-10T14:13:51.897Z,2.07
2024-02-10T14:15:57.984Z,1.87
2024-02-10T14:18:01.200Z,1.53
2024-02-10T14:20:18.564Z,2.23
2024-02-10T14:22:22.535Z,1.77
2024-02-10T14:24:25.332Z,3.77
2024-02-10T14:26:38.662Z,3.20
2024-02-10T14:28:51.097Z,2.47
2024-02-10T14:30:55.424Z,3.13
2024-02-10T14:32:57.300Z,1.90
2024-02-10T14:35:10.104Z,2.17
2024-02-10T14:37:28.572Z,2.07
2024-02-10T14:39:31.812Z,2.50
2024-02-10T14:41:34.924Z,3.10
2024-02-10T14:43:37.926Z,2.07
2024-02-10T14:45:40.751Z,2.30
2024-02-10T14:47:44.905Z,2.27
2024-02-10T14:49:48.747Z,1.80
2024-02-10T14:51:52.761Z,1.80
2024-02-10T14:53:55.533Z,5.00
2024-02-10T14:55:58.517Z,1.40
2024-02-10T14:58:00.413Z,1.63
2024-02-10T15:00:03.277Z,2.23
2024-02-10T15:02:06.224Z,2.03
2024-02-10T15:04:12.123Z,2.37
2024-02-10T15:06:20.358Z,4.37
2024-02-10T15:08:23.339Z,1.47
2024-02-10T15:10:26.210Z,3.10
2024-02-10T15:12:30.817Z,2.03
2024-02-10T15:14:33.902Z,3.10
2024-02-10T15:16:38.093Z,4.80
2024-02-10T15:18:40.988Z,16.13
2024-02-10T15:20:49.820Z,3.57
2024-02-10T15:22:51.741Z,1.93
2024-02-10T15:24:56.034Z,3.50
2024-02-10T15:26:59.258Z,3.03
2024-02-10T15:29:02.941Z,2.30
2024-02-10T15:31:07.039Z,2.93
2024-02-10T15:33:10.302Z,34.23
2024-02-10T15:35:15.227Z,12.07
2024-02-10T15:37:18.403Z,12.63
2024-02-10T15:39:21.172Z,9.40
2024-02-10T15:41:24.117Z,5.80
2024-02-10T15:43:28.198Z,2.20
2024-02-10T15:45:31.935Z,5.23
2024-02-10T15:47:34.715Z,2.70
2024-02-10T15:49:36.671Z,3.20
2024-02-10T15:51:40.355Z,4.97
2024-02-10T15:53:44.536Z,7.37
2024-02-10T15:55:48.350Z,9.30
2024-02-10T15:57:53.452Z,7.03
2024-02-10T15:59:56.226Z,11.27
2024-02-10T16:01:58.086Z,4.57
2024-02-10T16:04:01.138Z,6.07
2024-02-10T16:06:08.108Z,8.20
2024-02-10T16:08:11.994Z,6.13
2024-02-10T16:10:16.231Z,26.60
2024-02-10T16:12:19.093Z,27.67
2024-02-10T16:14:28.818Z,9.60
2024-02-10T16:16:32.049Z,25.13
2024-02-10T16:18:36.474Z,13.87
2024-02-10T16:20:38.944Z,15.53
2024-02-10T16:22:41.778Z,13.00
2024-02-10T16:24:47.562Z,19.90
2024-02-10T16:26:51.611Z,12.27
2024-02-10T16:28:54.526Z,13.40
2024-02-10T16:30:59.053Z,15.43
2024-02-10T16:33:01.981Z,11.57
2024-02-10T16:35:06.715Z,9.13
2024-02-10T16:37:11.629Z,9.47
2024-02-10T16:39:14.376Z,17.60
2024-02-10T16:41:20.876Z,6.87
2024-02-10T16:43:25.099Z,12.00
2024-02-10T16:45:28.137Z,7.17
2024-02-10T16:47:30.928Z,7.47
2024-02-10T16:49:33.783Z,7.57
2024-02-10T16:51:37.766Z,9.13
2024-02-10T16:53:42.937Z,10.50
2024-02-10T16:55:45.728Z,15.20
2024-02-10T16:57:48.470Z,10.97
2024-02-10T16:59:52.535Z,9.43
2024-02-10T17:01:55.316Z,10.93
2024-02-10T17:03:57.152Z,13.77
2024-02-10T17:06:04.356Z,8.50
2024-02-10T17:08:09.156Z,12.60
2024-02-10T17:10:12.102Z,6.40
2024-02-10T17:12:16.430Z,5.47
2024-02-10T17:14:20.380Z,5.67
2024-02-10T17:16:24.590Z,8.50
2024-02-10T17:18:27.464Z,5.70
2024-02-10T17:20:31.418Z,8.70
2024-02-10T17:22:34.781Z,7.80
2024-02-10T17:24:38.926Z,15.20
2024-02-10T17:26:41.716Z,8.20
2024-02-10T17:28:44.593Z,5.40
2024-02-10T17:30:49.174Z,7.97
2024-02-10T17:32:53.377Z,7.13
2024-02-10T17:34:58.703Z,8.80
2024-02-10T17:37:03.105Z,9.50
2024-02-10T17:39:06.232Z,7.07
2024-02-10T17:41:12.979Z,11.10
2024-02-10T17:43:17.927Z,13.10
2024-02-10T17:45:20.857Z,9.43
2024-02-10T17:47:24.217Z,7.10
2024-02-10T17:49:28.426Z,9.63
2024-02-10T17:51:32.082Z,5.57
2024-02-10T17:53:37.213Z,5.80
2024-02-10T17:55:40.638Z,7.73
2024-02-10T17:57:44.829Z,20.20
2024-02-10T17:59:47.628Z,15.70
2024-02-10T18:01:50.655Z,8.17
2024-02-10T18:03:53.465Z,11.57
2024-02-10T18:05:56.911Z,28.50
2024-02-10T18:07:59.789Z,25.17
2024-02-10T18:10:05.787Z,10.80
2024-02-10T18:12:09.780Z,9.97
2024-02-10T18:14:14.301Z,8.47
2024-02-10T18:16:17.149Z,7.10
2024-02-10T18:18:20.291Z,10.53
2024-02-10T18:20:22.623Z,13.20
2024-02-10T18:22:28.974Z,10.10
2024-02-10T18:24:33.478Z,13.97
2024-02-10T18:26:40.199Z,10.53
2024-02-10T18:28:43.120Z,21.10
2024-02-10T18:30:47.685Z,19.40
2024-02-10T18:32:49.654Z,15.53
2024-02-10T18:34:54.071Z,11.00
2024-02-10T18:36:58.113Z,13.17
2024-02-10T18:39:02.220Z,17.20
2024-02-10T18:41:04.168Z,24.70
2024-02-10T18:43:06.972Z,21.60
2024-02-10T18:45:09.958Z,20.93
2024-02-10T18:47:12.940Z,17.90
2024-02-10T18:49:14.975Z,16.43
2024-02-10T18:51:18.346Z,15.53
2024-02-10T18:53:21.537Z,19.00
2024-02-10T18:55:26.053Z,14.27
2024-02-10T18:57:29.929Z,14.80
2024-02-10T18:59:31.704Z,14.60
2024-02-10T19:01:36.777Z,16.40
2024-02-10T19:03:39.566Z,19.13
2024-02-10T19:05:43.784Z,18.17
2024-02-10T19:07:47.169Z,18.97
2024-02-10T19:09:49.963Z,20.30
2024-02-10T19:11:54.059Z,17.90
2024-02-10T19:13:57.100Z,20.73
2024-02-10T19:15:59.919Z,21.70
2024-02-10T19:18:02.830Z,24.20
2024-02-10T19:20:06.780Z,24.53
2024-02-10T19:22:09.577Z,21.43
2024-02-10T19:24:12.995Z,22.50
2024-02-10T19:26:16.269Z,27.63
2024-02-10T19:28:20.418Z,19.30
2024-02-10T19:30:23.389Z,20.23
2024-02-10T19:32:25.814Z,20.00
2024-02-10T19:34:29.829Z,24.83
2024-02-10T19:36:35.995Z,23.20
2024-02-10T19:38:40.794Z,25.00
2024-02-10T19:40:43.944Z,26.87
2024-02-10T19:42:47.079Z,26.03
2024-02-10T19:44:51.371Z,21.53
2024-02-10T19:46:54.179Z,22.10
2024-02-10T19:48:58.926Z,24.77
2024-02-10T19:51:04.170Z,23.73
2024-02-10T19:53:06.605Z,27.23
2024-02-10T19:55:09.775Z,27.10
2024-02-10T19:57:12.773Z,23.60
2024-02-10T19:59:15.649Z,23.33
2024-02-10T20:01:21.186Z,25.50
2024-02-10T20:03:24.955Z,26.13
2024-02-10T20:05:28.004Z,27.30
2024-02-10T20:07:32.057Z,24.13
2024-02-10T20:09:34.970Z,25.10
2024-02-10T20:11:39.585Z,29.10
2024-02-10T20:13:42.417Z,24.97
2024-02-10T20:15:45.731Z,23.00
2024-02-10T20:17:53.122Z,24.57
2024-02-10T20:19:56.277Z,22.70
2024-02-10T20:22:00.734Z,23.70
2024-02-10T20:24:03.718Z,25.63
2024-02-10T20:26:11.567Z,24.87
2024-02-10T20:28:14.429Z,24.70
2024-02-10T20:30:22.206Z,26.27
2024-02-10T20:32:25.368Z,28.00
2024-02-10T20:34:31.746Z,29.27
2024-02-10T20:36:34.864Z,24.77
2024-02-10T20:38:37.685Z,23.77
2024-02-10T20:40:40.477Z,31.00
2024-02-10T20:42:43.256Z,23.80
2024-02-10T20:44:48.222Z,21.93
2024-02-10T20:46:51.134Z,25.30
2024-02-10T20:48:53.957Z,24.63
2024-02-10T20:50:58.082Z,20.60
2024-02-10T20:53:00.877Z,29.03
2024-02-10T20:55:02.714Z,25.27
2024-02-10T20:57:07.165Z,26.10
2024-02-10T20:59:10.590Z,25.83
2024-02-10T21:01:14.192Z,22.23
2024-02-10T21:03:16.124Z,24.63
2024-02-10T21:05:19.088Z,29.13
2024-02-10T21:07:24.754Z,25.33
2024-02-10T21:09:27.566Z,26.10
2024-02-10T21:11:31.213Z,23.80
2024-02-10T21:13:34.781Z,26.50
2024-02-10T21:15:38.138Z,28.53
2024-02-10T21:17:41.249Z,31.17
2024-02-10T21:19:46.780Z,24.50
2024-02-10T21:21:50.208Z,28.97
2024-02-10T21:23:54.296Z,25.40
2024-02-10T21:25:57.202Z,27.20
2024-02-10T21:28:00.015Z,29.60
2024-02-10T21:30:01.791Z,26.80
2024-02-10T21:32:06.295Z,27.97
2024-02-10T21:34:11.260Z,26.87
2024-02-10T21:36:15.890Z,25.77
2024-02-10T21:38:20.457Z,28.47
2024-02-10T21:40:25.683Z,29.33
2024-02-10T21:42:27.496Z,26.60
2024-02-10T21:44:30.237Z,24.67
2024-02-10T21:46:33.131Z,27.23
2024-02-10T21:48:36.035Z,26.50
2024-02-10T21:50:42.192Z,29.47
2024-02-10T21:52:45.156Z,30.63
2024-02-10T21:54:52.198Z,27.57
2024-02-10T21:56:56.848Z,29.00
2024-02-10T21:59:01.080Z,26.77
2024-02-10T22:01:02.930Z,33.27
2024-02-10T22:03:05.693Z,33.93
2024-02-10T22:05:07.665Z,27.07
2024-02-10T22:07:10.466Z,29.07
2024-02-10T22:09:13.395Z,31.10
2024-02-10T22:11:15.230Z,27.60
2024-02-10T22:13:19.329Z,29.70
2024-02-10T22:15:22.092Z,31.80
2024-02-10T22:17:25.860Z,28.97
2024-02-10T22:19:29.283Z,33.60
2024-02-10T22:21:32.060Z,33.63
2024-02-10T22:23:34.835Z,32.77
2024-02-10T22:25:40.866Z,32.87
2024-02-10T22:27:44.368Z,32.70
2024-02-10T22:29:48.447Z,36.60
2024-02-10T22:31:50.401Z,38.07
2024-02-10T22:33:54.831Z,40.97
2024-02-10T22:35:58.480Z,37.30
2024-02-10T22:38:02.563Z,34.33
2024-02-10T22:40:07.206Z,34.17
2024-02-10T22:42:13.864Z,31.77
2024-02-10T22:44:17.545Z,34.27
2024-02-10T22:46:21.791Z,36.97
2024-02-10T22:48:26.542Z,35.70
2024-02-10T22:50:30.216Z,33.80
2024-02-10T22:52:35.566Z,36.63
2024-02-10T22:54:39.084Z,40.83
2024-02-10T22:56:42.825Z,33.70
2024-02-10T22:58:45.607Z,36.67
2024-02-10T23:00:51.947Z,47.10
2024-02-10T23:02:56.363Z,32.10
2024-02-10T23:04:59.194Z,36.83
2024-02-10T23:07:02.419Z,32.40
2024-02-10T23:09:07.918Z,36.47
2024-02-10T23:11:11.839Z,33.63
2024-02-10T23:13:20.608Z,35.27
2024-02-10T23:15:23.791Z,36.60
2024-02-10T23:17:27.853Z,34.73
2024-02-10T23:19:35.115Z,40.87
2024-02-10T23:21:38.858Z,36.17
2024-02-10T23:23:42.004Z,34.97
2024-02-10T23:25:45.031Z,38.27
2024-02-10T23:27:46.869Z,40.43
2024-02-10T23:29:49.630Z,35.87
2024-02-10T23:31:52.419Z,36.13
2024-02-10T23:33:55.260Z,39.13
2024-02-10T23:35:59.384Z,32.20
2024-02-10T23:38:03.693Z,34.30
2024-02-10T23:40:14.465Z,36.10
2024-02-10T23:42:17.326Z,38.23
2024-02-10T23:44:23.370Z,38.33
2024-02-10T23:46:26.802Z,37.23
2024-02-10T23:48:29.648Z,52.83
2024-02-10T23:50:31.510Z,43.57
2024-02-10T23:52:35.657Z,40.93
2024-02-10T23:54:37.506Z,38.93
2024-02-10T23:56:40.267Z,40.73
2024-02-10T23:58:43.476Z,42.50
